sensor_id;sensor_type;location;lat;lon;timestamp;temperature;humidity
59311;DHT22;45078;51.654;21.250;2023-03-21T00:01:18;8.80;99.90
59311;DHT22;45078;51.654;21.250;2023-03-21T00:03:44;8.80;99.90
59311;DHT22;45078;51.654;21.250;2023-03-21T00:06:12;8.70;99.90
59311;DHT22;45078;51.654;21.250;2023-03-21T00:08:39;8.70;99.90
59311;DHT22;45078;51.654;21.250;2023-03-21T00:11:06;8.70;99.90
59311;DHT22;45078;51.654;21.250;2023-03-21T00:13:33;8.70;99.90
59311;DHT22;45078;51.654;21.250;2023-03-21T00:16:13;8.70;99.90
59311;DHT22;45078;51.654;21.250;2023-03-21T00:18:46;8.60;99.90
59311;DHT22;45078;51.654;21.250;2023-03-21T00:21:17;8.60;99.90
59311;DHT22;45078;51.654;21.250;2023-03-21T00:23:45;8.60;99.90
59311;DHT22;45078;51.654;21.250;2023-03-21T00:26:11;8.60;99.90
59311;DHT22;45078;51.654;21.250;2023-03-21T00:28:39;8.60;99.90
59311;DHT22;45078;51.654;21.250;2023-03-21T00:31:05;8.60;99.90
59311;DHT22;45078;51.654;21.250;2023-03-21T00:33:32;8.50;99.90
59311;DHT22;45078;51.654;21.250;2023-03-21T00:35:59;8.50;99.90
59311;DHT22;45078;51.654;21.250;2023-03-21T00:38:25;8.50;99.90
59311;DHT22;45078;51.654;21.250;2023-03-21T00:40:52;8.50;99.90
59311;DHT22;45078;51.654;21.250;2023-03-21T00:43:18;8.40;99.90
59311;DHT22;45078;51.654;21.250;2023-03-21T00:45:49;8.40;99.90
59311;DHT22;45078;51.654;21.250;2023-03-21T00:48:17;8.40;99.90
59311;DHT22;45078;51.654;21.250;2023-03-21T00:50:44;8.40;99.90
59311;DHT22;45078;51.654;21.250;2023-03-21T00:53:12;8.40;99.90
59311;DHT22;45078;51.654;21.250;2023-03-21T00:55:38;8.40;99.90
59311;DHT22;45078;51.654;21.250;2023-03-21T00:58:04;8.40;99.90
59311;DHT22;45078;51.654;21.250;2023-03-21T01:00:30;8.30;99.90
59311;DHT22;45078;51.654;21.250;2023-03-21T01:02:57;8.30;99.90
59311;DHT22;45078;51.654;21.250;2023-03-21T01:05:25;8.30;99.90
59311;DHT22;45078;51.654;21.250;2023-03-21T01:08:12;8.30;99.90
59311;DHT22;45078;51.654;21.250;2023-03-21T01:10:40;8.30;99.90
59311;DHT22;45078;51.654;21.250;2023-03-21T01:13:07;8.30;99.90
59311;DHT22;45078;51.654;21.250;2023-03-21T01:15:33;8.30;99.90
59311;DHT22;45078;51.654;21.250;2023-03-21T01:17:59;8.30;99.90
59311;DHT22;45078;51.654;21.250;2023-03-21T01:20:25;8.30;99.90
59311;DHT22;45078;51.654;21.250;2023-03-21T01:22:52;8.30;99.90
59311;DHT22;45078;51.654;21.250;2023-03-21T01:25:18;8.30;99.90
59311;DHT22;45078;51.654;21.250;2023-03-21T01:27:44;8.20;99.90
59311;DHT22;45078;51.654;21.250;2023-03-21T01:30:10;8.20;99.90
59311;DHT22;45078;51.654;21.250;2023-03-21T01:32:36;8.20;99.90
59311;DHT22;45078;51.654;21.250;2023-03-21T01:35:02;8.20;99.90
59311;DHT22;45078;51.654;21.250;2023-03-21T01:37:28;8.20;99.90
59311;DHT22;45078;51.654;21.250;2023-03-21T01:39:55;8.20;99.90
59311;DHT22;45078;51.654;21.250;2023-03-21T01:42:21;8.10;99.90
59311;DHT22;45078;51.654;21.250;2023-03-21T01:45:04;8.10;99.90
59311;DHT22;45078;51.654;21.250;2023-03-21T01:47:30;8.10;99.90
59311;DHT22;45078;51.654;21.250;2023-03-21T01:49:59;8.10;99.90
59311;DHT22;45078;51.654;21.250;2023-03-21T01:52:33;8.10;99.90
59311;DHT22;45078;51.654;21.250;2023-03-21T01:55:02;8.10;99.90
59311;DHT22;45078;51.654;21.250;2023-03-21T01:57:39;8.00;99.90
59311;DHT22;45078;51.654;21.250;2023-03-21T02:00:06;8.10;99.90
59311;DHT22;45078;51.654;21.250;2023-03-21T02:02:39;8.00;99.90
59311;DHT22;45078;51.654;21.250;2023-03-21T02:05:17;8.00;99.90
59311;DHT22;45078;51.654;21.250;2023-03-21T02:07:45;8.00;99.90
59311;DHT22;45078;51.654;21.250;2023-03-21T02:10:12;8.00;99.90
59311;DHT22;45078;51.654;21.250;2023-03-21T02:12:39;8.00;99.90
59311;DHT22;45078;51.654;21.250;2023-03-21T02:15:06;8.00;99.90
59311;DHT22;45078;51.654;21.250;2023-03-21T02:17:56;8.00;99.90
59311;DHT22;45078;51.654;21.250;2023-03-21T02:29:07;8.00;99.90
59311;DHT22;45078;51.654;21.250;2023-03-21T02:34:50;8.00;99.90
59311;DHT22;45078;51.654;21.250;2023-03-21T02:37:48;8.00;99.90
59311;DHT22;45078;51.654;21.250;2023-03-21T02:45:53;7.90;99.90
59311;DHT22;45078;51.654;21.250;2023-03-21T02:48:26;7.90;99.90
59311;DHT22;45078;51.654;21.250;2023-03-21T02:50:58;7.90;99.90
59311;DHT22;45078;51.654;21.250;2023-03-21T02:53:29;7.90;99.90
59311;DHT22;45078;51.654;21.250;2023-03-21T02:55:57;7.90;99.90
59311;DHT22;45078;51.654;21.250;2023-03-21T02:58:24;7.90;99.90
59311;DHT22;45078;51.654;21.250;2023-03-21T03:00:52;7.90;99.90
59311;DHT22;45078;51.654;21.250;2023-03-21T03:03:21;7.90;99.90
59311;DHT22;45078;51.654;21.250;2023-03-21T03:05:51;7.90;99.90
59311;DHT22;45078;51.654;21.250;2023-03-21T03:08:44;7.90;99.90
59311;DHT22;45078;51.654;21.250;2023-03-21T03:19:07;7.80;99.90
59311;DHT22;45078;51.654;21.250;2023-03-21T03:21:50;7.80;99.90
59311;DHT22;45078;51.654;21.250;2023-03-21T03:24:21;7.80;99.90
59311;DHT22;45078;51.654;21.250;2023-03-21T03:27:01;7.80;99.90
59311;DHT22;45078;51.654;21.250;2023-03-21T03:29:30;7.80;99.90
59311;DHT22;45078;51.654;21.250;2023-03-21T03:34:52;7.80;99.90
59311;DHT22;45078;51.654;21.250;2023-03-21T03:37:23;7.70;99.90
59311;DHT22;45078;51.654;21.250;2023-03-21T03:40:13;7.80;99.90
59311;DHT22;45078;51.654;21.250;2023-03-21T03:42:46;7.80;99.90
59311;DHT22;45078;51.654;21.250;2023-03-21T03:45:13;7.70;99.90
59311;DHT22;45078;51.654;21.250;2023-03-21T03:47:46;7.70;99.90
59311;DHT22;45078;51.654;21.250;2023-03-21T03:50:34;7.70;99.90
59311;DHT22;45078;51.654;21.250;2023-03-21T03:53:27;7.70;99.90
59311;DHT22;45078;51.654;21.250;2023-03-21T03:55:55;7.70;99.90
59311;DHT22;45078;51.654;21.250;2023-03-21T03:58:22;7.70;99.90
59311;DHT22;45078;51.654;21.250;2023-03-21T04:00:49;7.80;99.90
59311;DHT22;45078;51.654;21.250;2023-03-21T04:03:15;7.70;99.90
59311;DHT22;45078;51.654;21.250;2023-03-21T04:05:41;7.70;99.90
59311;DHT22;45078;51.654;21.250;2023-03-21T04:08:15;7.70;99.90
59311;DHT22;45078;51.654;21.250;2023-03-21T04:10:41;7.70;99.90
59311;DHT22;45078;51.654;21.250;2023-03-21T04:13:08;7.70;99.90
59311;DHT22;45078;51.654;21.250;2023-03-21T04:15:34;7.70;99.90
59311;DHT22;45078;51.654;21.250;2023-03-21T04:18:00;7.70;99.90
59311;DHT22;45078;51.654;21.250;2023-03-21T04:20:26;7.70;99.90
59311;DHT22;45078;51.654;21.250;2023-03-21T04:22:52;7.70;99.90
59311;DHT22;45078;51.654;21.250;2023-03-21T04:25:19;7.70;99.90
59311;DHT22;45078;51.654;21.250;2023-03-21T04:27:45;7.70;99.90
59311;DHT22;45078;51.654;21.250;2023-03-21T04:30:14;7.60;99.90
59311;DHT22;45078;51.654;21.250;2023-03-21T04:32:40;7.60;99.90
59311;DHT22;45078;51.654;21.250;2023-03-21T04:35:07;7.60;99.90
59311;DHT22;45078;51.654;21.250;2023-03-21T04:37:34;7.60;99.90
59311;DHT22;45078;51.654;21.250;2023-03-21T04:40:01;7.60;99.90
59311;DHT22;45078;51.654;21.250;2023-03-21T04:42:32;7.60;99.90
59311;DHT22;45078;51.654;21.250;2023-03-21T04:44:57;7.60;99.90
59311;DHT22;45078;51.654;21.250;2023-03-21T04:47:23;7.60;99.90
59311;DHT22;45078;51.654;21.250;2023-03-21T04:49:49;7.60;99.90
59311;DHT22;45078;51.654;21.250;2023-03-21T04:52:16;7.60;99.90
59311;DHT22;45078;51.654;21.250;2023-03-21T04:54:42;7.50;99.90
59311;DHT22;45078;51.654;21.250;2023-03-21T04:57:08;7.50;99.90
59311;DHT22;45078;51.654;21.250;2023-03-21T04:59:34;7.50;99.90
59311;DHT22;45078;51.654;21.250;2023-03-21T05:02:00;7.50;99.90
59311;DHT22;45078;51.654;21.250;2023-03-21T05:04:26;7.50;99.90
59311;DHT22;45078;51.654;21.250;2023-03-21T05:06:53;7.60;99.90
59311;DHT22;45078;51.654;21.250;2023-03-21T05:09:19;7.60;99.90
59311;DHT22;45078;51.654;21.250;2023-03-21T05:11:47;7.60;99.90
59311;DHT22;45078;51.654;21.250;2023-03-21T05:14:22;7.60;99.90
59311;DHT22;45078;51.654;21.250;2023-03-21T05:16:48;7.60;99.90
59311;DHT22;45078;51.654;21.250;2023-03-21T05:19:29;7.60;99.90
59311;DHT22;45078;51.654;21.250;2023-03-21T05:22:07;7.60;99.90
59311;DHT22;45078;51.654;21.250;2023-03-21T05:24:34;7.60;99.90
59311;DHT22;45078;51.654;21.250;2023-03-21T05:27:04;7.60;99.90
59311;DHT22;45078;51.654;21.250;2023-03-21T05:29:31;7.70;99.90
59311;DHT22;45078;51.654;21.250;2023-03-21T05:31:58;7.60;99.90
59311;DHT22;45078;51.654;21.250;2023-03-21T05:34:25;7.60;99.90
59311;DHT22;45078;51.654;21.250;2023-03-21T05:36:52;7.70;99.90
59311;DHT22;45078;51.654;21.250;2023-03-21T05:39:18;7.70;99.90
59311;DHT22;45078;51.654;21.250;2023-03-21T05:41:44;7.70;99.90
59311;DHT22;45078;51.654;21.250;2023-03-21T05:44:10;7.70;99.90
59311;DHT22;45078;51.654;21.250;2023-03-21T05:46:36;7.70;99.90
59311;DHT22;45078;51.654;21.250;2023-03-21T05:49:02;7.70;99.90
59311;DHT22;45078;51.654;21.250;2023-03-21T05:51:28;7.80;99.90
59311;DHT22;45078;51.654;21.250;2023-03-21T05:53:53;7.80;99.90
59311;DHT22;45078;51.654;21.250;2023-03-21T05:56:19;7.90;99.90
59311;DHT22;45078;51.654;21.250;2023-03-21T05:58:45;7.80;99.90
59311;DHT22;45078;51.654;21.250;2023-03-21T06:01:11;7.80;99.90
59311;DHT22;45078;51.654;21.250;2023-03-21T06:03:36;7.80;99.90
59311;DHT22;45078;51.654;21.250;2023-03-21T06:06:02;7.90;99.90
59311;DHT22;45078;51.654;21.250;2023-03-21T06:08:29;7.90;99.90
59311;DHT22;45078;51.654;21.250;2023-03-21T06:10:56;8.00;99.90
59311;DHT22;45078;51.654;21.250;2023-03-21T06:13:22;8.00;99.90
59311;DHT22;45078;51.654;21.250;2023-03-21T06:15:47;8.00;99.90
59311;DHT22;45078;51.654;21.250;2023-03-21T06:18:13;8.00;99.90
59311;DHT22;45078;51.654;21.250;2023-03-21T06:20:40;8.00;99.90
59311;DHT22;45078;51.654;21.250;2023-03-21T06:23:06;8.00;99.90
59311;DHT22;45078;51.654;21.250;2023-03-21T06:25:31;8.10;99.90
59311;DHT22;45078;51.654;21.250;2023-03-21T06:27:57;8.10;99.90
59311;DHT22;45078;51.654;21.250;2023-03-21T06:30:23;8.20;99.90
59311;DHT22;45078;51.654;21.250;2023-03-21T06:32:48;8.20;99.90
59311;DHT22;45078;51.654;21.250;2023-03-21T06:35:14;8.30;99.90
59311;DHT22;45078;51.654;21.250;2023-03-21T06:37:40;8.30;99.90
59311;DHT22;45078;51.654;21.250;2023-03-21T06:40:07;8.20;99.90
59311;DHT22;45078;51.654;21.250;2023-03-21T06:42:34;8.20;99.90
59311;DHT22;45078;51.654;21.250;2023-03-21T06:45:00;8.20;99.90
59311;DHT22;45078;51.654;21.250;2023-03-21T06:47:26;8.30;99.90
59311;DHT22;45078;51.654;21.250;2023-03-21T06:49:51;8.30;99.90
59311;DHT22;45078;51.654;21.250;2023-03-21T06:52:17;8.30;99.90
59311;DHT22;45078;51.654;21.250;2023-03-21T06:54:43;8.20;99.90
59311;DHT22;45078;51.654;21.250;2023-03-21T06:57:09;8.30;99.90
59311;DHT22;45078;51.654;21.250;2023-03-21T06:59:35;8.30;99.90
59311;DHT22;45078;51.654;21.250;2023-03-21T07:02:00;8.30;99.90
59311;DHT22;45078;51.654;21.250;2023-03-21T07:04:27;8.30;99.90
59311;DHT22;45078;51.654;21.250;2023-03-21T07:06:53;8.30;99.90
59311;DHT22;45078;51.654;21.250;2023-03-21T07:09:19;8.20;99.90
59311;DHT22;45078;51.654;21.250;2023-03-21T07:11:48;8.20;99.90
59311;DHT22;45078;51.654;21.250;2023-03-21T07:14:18;8.20;99.90
59311;DHT22;45078;51.654;21.250;2023-03-21T07:16:44;8.20;99.90
59311;DHT22;45078;51.654;21.250;2023-03-21T07:19:09;8.20;99.90
59311;DHT22;45078;51.654;21.250;2023-03-21T07:21:35;8.20;99.90
59311;DHT22;45078;51.654;21.250;2023-03-21T07:24:01;8.20;99.90
59311;DHT22;45078;51.654;21.250;2023-03-21T07:26:27;8.30;99.90
59311;DHT22;45078;51.654;21.250;2023-03-21T07:28:52;8.30;99.90
59311;DHT22;45078;51.654;21.250;2023-03-21T07:31:19;8.20;99.90
59311;DHT22;45078;51.654;21.250;2023-03-21T07:33:45;8.20;99.90
59311;DHT22;45078;51.654;21.250;2023-03-21T07:36:14;8.20;99.90
59311;DHT22;45078;51.654;21.250;2023-03-21T07:38:44;8.20;99.90
59311;DHT22;45078;51.654;21.250;2023-03-21T07:41:10;8.20;99.90
59311;DHT22;45078;51.654;21.250;2023-03-21T07:43:37;8.30;99.90
59311;DHT22;45078;51.654;21.250;2023-03-21T07:46:03;8.30;99.90
59311;DHT22;45078;51.654;21.250;2023-03-21T07:48:29;8.30;99.90
59311;DHT22;45078;51.654;21.250;2023-03-21T07:50:55;8.30;99.90
59311;DHT22;45078;51.654;21.250;2023-03-21T07:53:21;8.30;99.90
59311;DHT22;45078;51.654;21.250;2023-03-21T07:55:51;8.30;99.90
59311;DHT22;45078;51.654;21.250;2023-03-21T07:58:17;8.40;99.90
59311;DHT22;45078;51.654;21.250;2023-03-21T08:00:43;8.40;99.90
59311;DHT22;45078;51.654;21.250;2023-03-21T08:03:09;8.30;99.90
59311;DHT22;45078;51.654;21.250;2023-03-21T08:05:36;8.30;99.90
59311;DHT22;45078;51.654;21.250;2023-03-21T08:08:03;8.30;99.90
59311;DHT22;45078;51.654;21.250;2023-03-21T08:10:29;8.30;99.90
59311;DHT22;45078;51.654;21.250;2023-03-21T08:12:55;8.40;99.90
59311;DHT22;45078;51.654;21.250;2023-03-21T08:15:21;8.40;99.90
59311;DHT22;45078;51.654;21.250;2023-03-21T08:17:47;8.50;99.90
59311;DHT22;45078;51.654;21.250;2023-03-21T08:20:18;8.50;99.90
59311;DHT22;45078;51.654;21.250;2023-03-21T08:22:46;8.50;99.90
59311;DHT22;45078;51.654;21.250;2023-03-21T08:25:13;8.60;99.90
59311;DHT22;45078;51.654;21.250;2023-03-21T08:27:43;8.60;99.90
59311;DHT22;45078;51.654;21.250;2023-03-21T08:30:16;8.70;99.90
59311;DHT22;45078;51.654;21.250;2023-03-21T08:32:42;8.70;99.90
59311;DHT22;45078;51.654;21.250;2023-03-21T08:35:11;8.70;99.90
59311;DHT22;45078;51.654;21.250;2023-03-21T08:37:38;8.80;99.90
59311;DHT22;45078;51.654;21.250;2023-03-21T08:40:07;8.70;99.90
59311;DHT22;45078;51.654;21.250;2023-03-21T08:42:36;8.70;99.90
59311;DHT22;45078;51.654;21.250;2023-03-21T08:45:03;8.70;99.90
59311;DHT22;45078;51.654;21.250;2023-03-21T08:47:30;8.80;99.90
59311;DHT22;45078;51.654;21.250;2023-03-21T08:49:56;9.00;99.90
59311;DHT22;45078;51.654;21.250;2023-03-21T08:52:25;9.10;99.90
59311;DHT22;45078;51.654;21.250;2023-03-21T08:54:52;9.10;99.90
59311;DHT22;45078;51.654;21.250;2023-03-21T08:57:18;9.20;99.90
59311;DHT22;45078;51.654;21.250;2023-03-21T08:59:44;9.30;99.90
59311;DHT22;45078;51.654;21.250;2023-03-21T09:02:14;9.30;99.90
59311;DHT22;45078;51.654;21.250;2023-03-21T09:04:41;9.40;99.90
59311;DHT22;45078;51.654;21.250;2023-03-21T09:07:08;9.30;99.90
59311;DHT22;45078;51.654;21.250;2023-03-21T09:09:35;9.40;99.90
59311;DHT22;45078;51.654;21.250;2023-03-21T09:12:02;9.50;99.90
59311;DHT22;45078;51.654;21.250;2023-03-21T09:14:28;9.60;99.90
59311;DHT22;45078;51.654;21.250;2023-03-21T09:16:53;9.80;99.90
59311;DHT22;45078;51.654;21.250;2023-03-21T09:19:19;9.90;99.90
59311;DHT22;45078;51.654;21.250;2023-03-21T09:21:46;9.90;99.90
59311;DHT22;45078;51.654;21.250;2023-03-21T09:24:12;9.90;99.90
59311;DHT22;45078;51.654;21.250;2023-03-21T09:26:38;10.00;99.90
59311;DHT22;45078;51.654;21.250;2023-03-21T09:29:04;10.00;99.90
59311;DHT22;45078;51.654;21.250;2023-03-21T09:31:31;9.90;99.90
59311;DHT22;45078;51.654;21.250;2023-03-21T09:33:57;9.80;99.90
59311;DHT22;45078;51.654;21.250;2023-03-21T09:36:24;9.80;99.90
59311;DHT22;45078;51.654;21.250;2023-03-21T09:38:52;9.70;99.90
59311;DHT22;45078;51.654;21.250;2023-03-21T09:49:43;9.40;99.90
59311;DHT22;45078;51.654;21.250;2023-03-21T09:55:22;9.60;99.90
59311;DHT22;45078;51.654;21.250;2023-03-21T09:58:23;9.80;99.90
59311;DHT22;45078;51.654;21.250;2023-03-21T10:01:29;10.10;99.90
59311;DHT22;45078;51.654;21.250;2023-03-21T10:04:13;10.10;99.90
59311;DHT22;45078;51.654;21.250;2023-03-21T10:06:40;10.10;99.90
59311;DHT22;45078;51.654;21.250;2023-03-21T10:09:15;10.10;99.90
59311;DHT22;45078;51.654;21.250;2023-03-21T10:12:07;10.10;99.90
59311;DHT22;45078;51.654;21.250;2023-03-21T10:14:47;10.10;99.90
59311;DHT22;45078;51.654;21.250;2023-03-21T10:20:16;10.10;99.90
59311;DHT22;45078;51.654;21.250;2023-03-21T10:22:43;10.00;99.90
59311;DHT22;45078;51.654;21.250;2023-03-21T10:25:17;9.90;99.90
59311;DHT22;45078;51.654;21.250;2023-03-21T10:27:44;9.90;99.90
59311;DHT22;45078;51.654;21.250;2023-03-21T10:30:37;9.90;99.90
59311;DHT22;45078;51.654;21.250;2023-03-21T10:33:07;9.80;99.90
59311;DHT22;45078;51.654;21.250;2023-03-21T10:35:36;9.80;99.90
59311;DHT22;45078;51.654;21.250;2023-03-21T10:38:05;9.70;99.90
59311;DHT22;45078;51.654;21.250;2023-03-21T10:40:32;9.70;99.90
59311;DHT22;45078;51.654;21.250;2023-03-21T10:43:16;9.70;99.90
59311;DHT22;45078;51.654;21.250;2023-03-21T10:45:46;9.70;99.90
59311;DHT22;45078;51.654;21.250;2023-03-21T10:48:12;9.80;99.90
59311;DHT22;45078;51.654;21.250;2023-03-21T10:50:38;9.70;99.90
59311;DHT22;45078;51.654;21.250;2023-03-21T10:56:08;9.50;99.90
59311;DHT22;45078;51.654;21.250;2023-03-21T10:58:45;9.50;99.90
59311;DHT22;45078;51.654;21.250;2023-03-21T11:01:28;9.40;99.90
59311;DHT22;45078;51.654;21.250;2023-03-21T11:03:59;9.30;99.90
59311;DHT22;45078;51.654;21.250;2023-03-21T11:06:28;9.20;99.90
59311;DHT22;45078;51.654;21.250;2023-03-21T11:09:00;9.20;99.90
59311;DHT22;45078;51.654;21.250;2023-03-21T11:11:37;9.20;99.90
59311;DHT22;45078;51.654;21.250;2023-03-21T11:14:06;9.20;99.90
59311;DHT22;45078;51.654;21.250;2023-03-21T11:16:41;9.20;99.90
59311;DHT22;45078;51.654;21.250;2023-03-21T11:19:16;9.20;99.90
59311;DHT22;45078;51.654;21.250;2023-03-21T11:21:42;9.30;99.90
59311;DHT22;45078;51.654;21.250;2023-03-21T11:24:14;9.40;99.90
59311;DHT22;45078;51.654;21.250;2023-03-21T11:26:42;9.40;99.90
59311;DHT22;45078;51.654;21.250;2023-03-21T11:31:47;9.50;99.90
59311;DHT22;45078;51.654;21.250;2023-03-21T11:34:33;9.50;99.90
59311;DHT22;45078;51.654;21.250;2023-03-21T11:37:03;9.50;99.90
59311;DHT22;45078;51.654;21.250;2023-03-21T11:39:33;9.50;99.90
59311;DHT22;45078;51.654;21.250;2023-03-21T11:41:59;9.40;99.90
59311;DHT22;45078;51.654;21.250;2023-03-21T11:44:34;9.40;99.90
59311;DHT22;45078;51.654;21.250;2023-03-21T11:47:08;9.40;99.90
59311;DHT22;45078;51.654;21.250;2023-03-21T11:49:34;9.30;99.90
59311;DHT22;45078;51.654;21.250;2023-03-21T11:58:04;9.40;99.90
59311;DHT22;45078;51.654;21.250;2023-03-21T12:00:44;9.40;99.90
59311;DHT22;45078;51.654;21.250;2023-03-21T12:03:16;9.50;99.90
59311;DHT22;45078;51.654;21.250;2023-03-21T12:06:01;9.50;99.90
59311;DHT22;45078;51.654;21.250;2023-03-21T12:13:53;9.50;99.90
59311;DHT22;45078;51.654;21.250;2023-03-21T12:25:35;9.40;99.90
59311;DHT22;45078;51.654;21.250;2023-03-21T12:39:30;9.30;99.90
59311;DHT22;45078;51.654;21.250;2023-03-21T12:44:57;9.50;99.90
59311;DHT22;45078;51.654;21.250;2023-03-21T12:47:28;9.50;99.90
59311;DHT22;45078;51.654;21.250;2023-03-21T12:52:51;9.60;99.90
59311;DHT22;45078;51.654;21.250;2023-03-21T12:55:30;9.70;99.90
59311;DHT22;45078;51.654;21.250;2023-03-21T12:58:03;9.80;99.90
59311;DHT22;45078;51.654;21.250;2023-03-21T13:00:50;9.80;99.90
59311;DHT22;45078;51.654;21.250;2023-03-21T13:03:23;9.60;99.90
59311;DHT22;45078;51.654;21.250;2023-03-21T13:05:56;9.60;99.90
59311;DHT22;45078;51.654;21.250;2023-03-21T13:08:48;9.40;99.90
59311;DHT22;45078;51.654;21.250;2023-03-21T13:11:22;9.30;99.90
59311;DHT22;45078;51.654;21.250;2023-03-21T13:13:51;9.20;99.90
59311;DHT22;45078;51.654;21.250;2023-03-21T13:16:32;9.20;99.90
59311;DHT22;45078;51.654;21.250;2023-03-21T13:24:46;9.30;99.90
59311;DHT22;45078;51.654;21.250;2023-03-21T13:27:35;9.40;99.90
59311;DHT22;45078;51.654;21.250;2023-03-21T13:30:04;9.40;99.90
59311;DHT22;45078;51.654;21.250;2023-03-21T13:32:48;9.50;99.90
59311;DHT22;45078;51.654;21.250;2023-03-21T13:38:01;9.70;99.90
59311;DHT22;45078;51.654;21.250;2023-03-21T13:40:28;9.80;99.90
59311;DHT22;45078;51.654;21.250;2023-03-21T13:42:59;10.00;99.90
59311;DHT22;45078;51.654;21.250;2023-03-21T13:45:51;10.00;99.90
59311;DHT22;45078;51.654;21.250;2023-03-21T13:48:29;10.00;99.90
59311;DHT22;45078;51.654;21.250;2023-03-21T13:51:03;10.20;99.90
59311;DHT22;45078;51.654;21.250;2023-03-21T13:53:39;10.30;99.90
59311;DHT22;45078;51.654;21.250;2023-03-21T14:01:30;10.10;99.90
59311;DHT22;45078;51.654;21.250;2023-03-21T14:04:18;10.00;99.90
59311;DHT22;45078;51.654;21.250;2023-03-21T14:06:53;9.90;99.90
59311;DHT22;45078;51.654;21.250;2023-03-21T14:11:58;9.50;99.90
59311;DHT22;45078;51.654;21.250;2023-03-21T14:14:40;9.40;99.90
59311;DHT22;45078;51.654;21.250;2023-03-21T14:17:19;9.30;99.90
59311;DHT22;45078;51.654;21.250;2023-03-21T14:19:54;9.20;99.90
59311;DHT22;45078;51.654;21.250;2023-03-21T14:22:21;9.20;99.90
59311;DHT22;45078;51.654;21.250;2023-03-21T14:25:00;9.30;99.90
59311;DHT22;45078;51.654;21.250;2023-03-21T14:27:32;9.30;99.90
59311;DHT22;45078;51.654;21.250;2023-03-21T14:30:00;9.30;99.90
59311;DHT22;45078;51.654;21.250;2023-03-21T14:32:28;9.20;99.90
59311;DHT22;45078;51.654;21.250;2023-03-21T14:34:56;9.20;99.90
59311;DHT22;45078;51.654;21.250;2023-03-21T14:37:44;9.20;99.90
59311;DHT22;45078;51.654;21.250;2023-03-21T14:40:23;9.20;99.90
59311;DHT22;45078;51.654;21.250;2023-03-21T14:42:50;9.10;99.90
59311;DHT22;45078;51.654;21.250;2023-03-21T14:45:27;9.10;99.90
59311;DHT22;45078;51.654;21.250;2023-03-21T14:48:02;9.10;99.90
59311;DHT22;45078;51.654;21.250;2023-03-21T14:50:53;9.10;99.90
59311;DHT22;45078;51.654;21.250;2023-03-21T14:58:29;9.20;99.90
59311;DHT22;45078;51.654;21.250;2023-03-21T15:00:59;9.20;99.90
59311;DHT22;45078;51.654;21.250;2023-03-21T15:03:26;9.30;99.90
59311;DHT22;45078;51.654;21.250;2023-03-21T15:05:54;9.40;99.90
59311;DHT22;45078;51.654;21.250;2023-03-21T15:08:22;9.40;99.90
59311;DHT22;45078;51.654;21.250;2023-03-21T15:11:00;9.50;99.90
59311;DHT22;45078;51.654;21.250;2023-03-21T15:16:10;9.50;99.90
59311;DHT22;45078;51.654;21.250;2023-03-21T15:18:37;9.50;99.90
59311;DHT22;45078;51.654;21.250;2023-03-21T15:21:28;9.50;99.90
59311;DHT22;45078;51.654;21.250;2023-03-21T15:23:59;9.60;99.90
59311;DHT22;45078;51.654;21.250;2023-03-21T15:26:29;9.60;99.90
59311;DHT22;45078;51.654;21.250;2023-03-21T15:28:59;9.60;99.90
59311;DHT22;45078;51.654;21.250;2023-03-21T15:31:29;9.70;99.90
59311;DHT22;45078;51.654;21.250;2023-03-21T15:33:56;9.80;99.90
59311;DHT22;45078;51.654;21.250;2023-03-21T15:36:26;10.00;99.90
59311;DHT22;45078;51.654;21.250;2023-03-21T15:38:53;9.90;99.90
59311;DHT22;45078;51.654;21.250;2023-03-21T15:46:50;10.00;99.90
59311;DHT22;45078;51.654;21.250;2023-03-21T15:49:23;9.90;99.90
59311;DHT22;45078;51.654;21.250;2023-03-21T15:54:24;9.90;99.90
59311;DHT22;45078;51.654;21.250;2023-03-21T15:56:55;9.90;99.90
59311;DHT22;45078;51.654;21.250;2023-03-21T15:59:25;9.80;99.90
59311;DHT22;45078;51.654;21.250;2023-03-21T16:01:52;9.80;99.90
59311;DHT22;45078;51.654;21.250;2023-03-21T16:04:18;9.80;99.90
59311;DHT22;45078;51.654;21.250;2023-03-21T16:07:13;9.70;99.90
59311;DHT22;45078;51.654;21.250;2023-03-21T16:09:44;9.60;99.90
59311;DHT22;45078;51.654;21.250;2023-03-21T16:12:12;9.50;99.90
59311;DHT22;45078;51.654;21.250;2023-03-21T16:14:39;9.40;99.90
59311;DHT22;45078;51.654;21.250;2023-03-21T16:17:25;9.40;99.90
59311;DHT22;45078;51.654;21.250;2023-03-21T16:19:52;9.30;99.90
59311;DHT22;45078;51.654;21.250;2023-03-21T16:22:19;9.30;99.90
59311;DHT22;45078;51.654;21.250;2023-03-21T16:24:47;9.20;99.90
59311;DHT22;45078;51.654;21.250;2023-03-21T16:27:12;9.10;99.90
59311;DHT22;45078;51.654;21.250;2023-03-21T16:29:40;9.00;99.90
59311;DHT22;45078;51.654;21.250;2023-03-21T16:32:13;9.00;99.90
59311;DHT22;45078;51.654;21.250;2023-03-21T16:34:39;9.00;99.90
59311;DHT22;45078;51.654;21.250;2023-03-21T16:37:09;8.90;99.90
59311;DHT22;45078;51.654;21.250;2023-03-21T16:39:35;8.80;99.90
59311;DHT22;45078;51.654;21.250;2023-03-21T16:42:01;8.80;99.90
59311;DHT22;45078;51.654;21.250;2023-03-21T16:44:27;8.70;99.90
59311;DHT22;45078;51.654;21.250;2023-03-21T16:46:52;8.70;99.90
59311;DHT22;45078;51.654;21.250;2023-03-21T16:51:46;8.60;99.90
59311;DHT22;45078;51.654;21.250;2023-03-21T16:54:12;8.50;99.90
59311;DHT22;45078;51.654;21.250;2023-03-21T16:56:40;8.40;99.90
59311;DHT22;45078;51.654;21.250;2023-03-21T16:59:06;8.30;99.90
59311;DHT22;45078;51.654;21.250;2023-03-21T17:01:33;8.10;99.90
59311;DHT22;45078;51.654;21.250;2023-03-21T17:04:02;8.00;99.90
59311;DHT22;45078;51.654;21.250;2023-03-21T17:06:29;8.00;99.90
59311;DHT22;45078;51.654;21.250;2023-03-21T17:08:56;7.70;99.90
59311;DHT22;45078;51.654;21.250;2023-03-21T17:11:24;7.60;99.90
59311;DHT22;45078;51.654;21.250;2023-03-21T17:13:52;7.60;99.90
59311;DHT22;45078;51.654;21.250;2023-03-21T17:16:23;7.50;99.90
59311;DHT22;45078;51.654;21.250;2023-03-21T17:18:49;7.40;99.90
59311;DHT22;45078;51.654;21.250;2023-03-21T17:21:23;7.30;99.90
59311;DHT22;45078;51.654;21.250;2023-03-21T17:23:51;7.10;99.90
59311;DHT22;45078;51.654;21.250;2023-03-21T17:26:22;6.90;99.90
59311;DHT22;45078;51.654;21.250;2023-03-21T17:28:49;6.80;99.90
59311;DHT22;45078;51.654;21.250;2023-03-21T17:31:20;6.70;99.90
59311;DHT22;45078;51.654;21.250;2023-03-21T17:33:47;6.60;99.90
59311;DHT22;45078;51.654;21.250;2023-03-21T17:36:18;6.40;99.90
59311;DHT22;45078;51.654;21.250;2023-03-21T17:38:44;6.20;99.90
59311;DHT22;45078;51.654;21.250;2023-03-21T17:41:16;6.00;99.90
59311;DHT22;45078;51.654;21.250;2023-03-21T17:43:42;6.00;99.90
59311;DHT22;45078;51.654;21.250;2023-03-21T17:46:19;5.90;99.90
59311;DHT22;45078;51.654;21.250;2023-03-21T17:48:47;5.80;99.90